Time;durP1;ratioP1;P1;durP2;ratioP2;P2;SDS_P1;SDS_P2;PMS_P1;PMS_P2;Temp;Humidity;BMP_temperature;BMP_pressure;BME280_temperature;BME280_humidity;BME280_pressure;Samples;Min_cycle;Max_cycle;Signal;HPM_P1;HPM_P2
2021/12/28 00:01:20;;;;;;;;;;;4.00;99.90;;;;;;5092626;28;19923;-62
2021/12/28 00:03:45;;;;;;;;;;;4.10;99.90;;;;;;5092630;28;20262;-62
2021/12/28 00:06:12;;;;;;;;;;;4.10;99.90;;;;;;5092477;28;19923;-62
2021/12/28 00:08:38;;;;;;;;;;;4.10;99.90;;;;;;5092352;28;19970;-62
2021/12/28 00:11:04;;;;;;;;;;;4.10;99.90;;;;;;5092626;28;19926;-62
2021/12/28 00:13:30;;;;;;;;;;;4.10;99.90;;;;;;5092454;28;19916;-62
2021/12/28 00:18:22;;;;;;;;;;;4.10;99.90;;;;;;5092867;28;20266;-62
2021/12/28 00:20:49;;;;;;;;;;;4.10;99.90;;;;;;5092574;28;20701;-62
2021/12/28 00:23:17;;;;;;;;;;;4.10;99.90;;;;;;5092436;28;19951;-62
2021/12/28 00:25:43;;;;;;;;;;;4.10;99.90;;;;;;5092689;28;19999;-62
2021/12/28 00:28:09;;;;;;;;;;;4.20;99.90;;;;;;5092297;28;20039;-62
2021/12/28 00:30:35;;;;;;;;;;;4.20;99.90;;;;;;5092552;28;20003;-62
2021/12/28 00:33:01;;;;;;;;;;;4.20;99.90;;;;;;5092331;28;20320;-62
2021/12/28 00:35:28;;;;;;;;;;;4.10;99.90;;;;;;5092212;28;20320;-62
2021/12/28 00:37:54;;;;;;;;;;;4.20;99.90;;;;;;5092425;28;19922;-63
2021/12/28 00:40:19;;;;;;;;;;;4.20;99.90;;;;;;5092218;28;19920;-62
2021/12/28 00:42:45;;;;;;;;;;;4.20;99.90;;;;;;5092248;28;19916;-62
2021/12/28 00:45:11;;;;;;;;;;;4.20;99.90;;;;;;5093526;28;19916;-62
2021/12/28 00:47:37;;;;;;;;;;;4.20;99.90;;;;;;5096214;28;20400;-62
2021/12/28 00:50:03;;;;;;;;;;;4.20;99.90;;;;;;5095936;28;19916;-62
2021/12/28 00:52:29;;;;;;;;;;;4.30;99.90;;;;;;5095998;28;19916;-61
2021/12/28 00:54:54;;;;;;;;;;;4.30;99.90;;;;;;5095950;28;19924;-62
2021/12/28 00:57:20;;;;;;;;;;;4.30;99.90;;;;;;5095999;28;20007;-62
2021/12/28 00:59:45;;;;;;;;;;;4.30;99.90;;;;;;5096024;28;20354;-62
2021/12/28 01:02:11;;;;;;;;;;;4.30;99.90;;;;;;5095937;28;19958;-62
2021/12/28 01:04:36;;;;;;;;;;;4.30;99.90;;;;;;5095789;28;20022;-62
2021/12/28 01:07:02;;;;;;;;;;;4.30;99.90;;;;;;5111520;28;19920;-62
2021/12/28 01:09:30;;;;;;;;;;;4.30;99.90;;;;;;5095781;28;20487;-62
2021/12/28 01:12:00;;;;;;;;;;;4.40;99.90;;;;;;5095641;28;19978;-62
2021/12/28 01:14:27;;;;;;;;;;;4.30;99.90;;;;;;5095715;28;19962;-62
2021/12/28 01:16:52;;;;;;;;;;;4.30;99.90;;;;;;5095719;28;19922;-62
2021/12/28 01:19:18;;;;;;;;;;;4.30;99.90;;;;;;5111293;28;19915;-62
2021/12/28 01:21:43;;;;;;;;;;;4.30;99.90;;;;;;5095656;28;19920;-62
2021/12/28 01:24:09;;;;;;;;;;;4.40;99.90;;;;;;5095842;28;20388;-62
2021/12/28 01:26:34;;;;;;;;;;;4.40;99.90;;;;;;5095469;28;19916;-63
2021/12/28 01:29:00;;;;;;;;;;;4.40;99.90;;;;;;5095141;28;20014;-62
2021/12/28 01:31:25;;;;;;;;;;;4.50;99.90;;;;;;5093959;28;19934;-62
2021/12/28 01:33:51;;;;;;;;;;;4.40;99.90;;;;;;5095240;28;20327;-62
2021/12/28 01:36:17;;;;;;;;;;;4.50;99.90;;;;;;5095367;28;19915;-62
2021/12/28 01:38:42;;;;;;;;;;;4.50;99.90;;;;;;5095259;28;19916;-63
2021/12/28 01:41:10;;;;;;;;;;;4.50;99.90;;;;;;5095268;28;19916;-62
2021/12/28 01:43:38;;;;;;;;;;;4.50;99.90;;;;;;5095089;28;19938;-62
2021/12/28 01:46:04;;;;;;;;;;;4.50;99.90;;;;;;5095007;28;20358;-62
2021/12/28 01:48:31;;;;;;;;;;;4.60;99.90;;;;;;5095011;28;20006;-62
2021/12/28 01:51:10;;;;;;;;;;;4.50;99.90;;;;;;5095076;28;19920;-62
2021/12/28 01:53:36;;;;;;;;;;;4.60;99.90;;;;;;5095015;28;19916;-62
2021/12/28 01:56:08;;;;;;;;;;;4.60;99.90;;;;;;5094612;28;19958;-62
2021/12/28 01:58:34;;;;;;;;;;;4.60;99.90;;;;;;5094722;28;19920;-62
2021/12/28 02:01:00;;;;;;;;;;;4.70;99.90;;;;;;5094770;28;19923;-62
2021/12/28 02:03:26;;;;;;;;;;;4.70;99.90;;;;;;5094872;28;19997;-62
2021/12/28 02:05:52;;;;;;;;;;;4.80;99.90;;;;;;5094588;28;19916;-62
2021/12/28 02:08:18;;;;;;;;;;;4.80;99.90;;;;;;5094647;28;19938;-62
2021/12/28 02:10:44;;;;;;;;;;;4.80;99.90;;;;;;5110180;28;19924;-62
2021/12/28 02:13:10;;;;;;;;;;;4.80;99.90;;;;;;5094386;28;19920;-62
2021/12/28 02:15:36;;;;;;;;;;;4.90;99.90;;;;;;5094628;28;20594;-62
2021/12/28 02:18:02;;;;;;;;;;;4.90;99.90;;;;;;5094509;28;20023;-62
2021/12/28 02:20:28;;;;;;;;;;;4.90;99.90;;;;;;5094313;28;20002;-62
2021/12/28 02:22:53;;;;;;;;;;;4.90;99.90;;;;;;5094442;28;20003;-62
2021/12/28 02:25:19;;;;;;;;;;;4.90;99.90;;;;;;5094468;28;20411;-62
2021/12/28 02:27:45;;;;;;;;;;;5.00;99.90;;;;;;5094227;28;20002;-62
2021/12/28 02:30:12;;;;;;;;;;;5.00;99.90;;;;;;5094190;28;20265;-62
2021/12/28 02:32:42;;;;;;;;;;;5.10;99.90;;;;;;5094364;28;19923;-62
2021/12/28 02:35:09;;;;;;;;;;;5.10;99.90;;;;;;5094072;28;20419;-62
2021/12/28 02:37:34;;;;;;;;;;;5.10;99.90;;;;;;5094216;28;19920;-63
2021/12/28 02:40:00;;;;;;;;;;;5.10;99.90;;;;;;5094010;28;20293;-62
2021/12/28 02:42:26;;;;;;;;;;;5.20;99.90;;;;;;5094061;28;20328;-63
2021/12/28 02:44:59;;;;;;;;;;;5.20;99.90;;;;;;5109682;28;19974;-63
2021/12/28 02:47:25;;;;;;;;;;;5.20;99.90;;;;;;5093979;28;19992;-63
2021/12/28 02:49:50;;;;;;;;;;;5.20;99.90;;;;;;5094002;28;19991;-63
2021/12/28 02:52:16;;;;;;;;;;;5.30;99.90;;;;;;5093907;28;19978;-62
2021/12/28 02:54:41;;;;;;;;;;;5.30;99.90;;;;;;5093828;28;20312;-62
2021/12/28 02:57:07;;;;;;;;;;;5.30;99.90;;;;;;5093850;28;19916;-63
2021/12/28 02:59:33;;;;;;;;;;;5.30;99.90;;;;;;5093834;28;19916;-63
2021/12/28 03:01:58;;;;;;;;;;;5.30;99.90;;;;;;5093833;28;20324;-63
2021/12/28 03:04:27;;;;;;;;;;;5.30;99.90;;;;;;5093865;28;20015;-63
2021/12/28 03:06:53;;;;;;;;;;;5.50;99.90;;;;;;5093715;28;19923;-62
2021/12/28 03:09:20;;;;;;;;;;;5.40;99.90;;;;;;5093084;28;19916;-63
2021/12/28 03:11:46;;;;;;;;;;;5.40;99.90;;;;;;5093365;28;19924;-62
2021/12/28 03:14:12;;;;;;;;;;;5.50;99.90;;;;;;5093681;28;20339;-63
2021/12/28 03:16:38;;;;;;;;;;;5.50;99.90;;;;;;5093468;28;19916;-63
2021/12/28 03:19:04;;;;;;;;;;;5.50;99.90;;;;;;5109000;28;19920;-62
2021/12/28 03:21:30;;;;;;;;;;;5.50;99.90;;;;;;5093349;28;19915;-62
2021/12/28 03:23:56;;;;;;;;;;;5.50;99.90;;;;;;5093164;28;20384;-62
2021/12/28 03:26:22;;;;;;;;;;;5.50;99.90;;;;;;5093234;28;20010;-63
2021/12/28 03:28:48;;;;;;;;;;;5.60;99.90;;;;;;5093100;28;19920;-62
2021/12/28 03:31:15;;;;;;;;;;;5.60;99.90;;;;;;5093247;28;19950;-63
2021/12/28 03:33:41;;;;;;;;;;;5.60;99.90;;;;;;5093071;28;19923;-63
2021/12/28 03:36:08;;;;;;;;;;;5.60;99.90;;;;;;5093127;28;20385;-63
2021/12/28 03:38:34;;;;;;;;;;;5.60;99.90;;;;;;5093202;28;19970;-62
2021/12/28 03:41:00;;;;;;;;;;;5.60;99.90;;;;;;5093317;28;19928;-63
2021/12/28 03:43:25;;;;;;;;;;;5.60;99.90;;;;;;5093138;28;19959;-63
2021/12/28 03:45:51;;;;;;;;;;;5.60;99.90;;;;;;5093075;28;19959;-63
2021/12/28 03:48:17;;;;;;;;;;;5.60;99.90;;;;;;5093016;28;19916;-63
2021/12/28 03:50:43;;;;;;;;;;;5.60;99.90;;;;;;5092885;28;20010;-63
2021/12/28 03:53:08;;;;;;;;;;;5.60;99.90;;;;;;5092876;28;20320;-63
2021/12/28 03:55:35;;;;;;;;;;;5.60;99.90;;;;;;5092789;28;19920;-63
2021/12/28 03:58:02;;;;;;;;;;;5.70;99.90;;;;;;5092603;28;19920;-63
2021/12/28 04:00:29;;;;;;;;;;;5.60;99.90;;;;;;5092668;28;20015;-63
2021/12/28 04:02:55;;;;;;;;;;;5.60;99.90;;;;;;5092699;28;19923;-63
2021/12/28 04:05:21;;;;;;;;;;;5.70;99.90;;;;;;5092701;28;19916;-63
2021/12/28 04:07:48;;;;;;;;;;;5.70;99.90;;;;;;5092593;28;19926;-63
2021/12/28 04:10:15;;;;;;;;;;;5.70;99.90;;;;;;5092386;28;19927;-63
2021/12/28 04:12:41;;;;;;;;;;;5.70;99.90;;;;;;5092468;28;20460;-63
2021/12/28 04:15:08;;;;;;;;;;;5.70;99.90;;;;;;5092635;28;19920;-63
2021/12/28 04:17:37;;;;;;;;;;;5.70;99.90;;;;;;5092531;28;20350;-63
2021/12/28 04:20:09;;;;;;;;;;;5.80;99.90;;;;;;5091528;28;19915;-63
2021/12/28 04:22:35;;;;;;;;;;;5.70;99.90;;;;;;5092409;28;20377;-63
2021/12/28 04:25:00;;;;;;;;;;;5.70;99.90;;;;;;5092559;28;19945;-63
2021/12/28 04:27:26;;;;;;;;;;;5.70;99.90;;;;;;5092335;28;19924;-63
2021/12/28 04:29:51;;;;;;;;;;;5.80;99.90;;;;;;5091777;28;19996;-63
2021/12/28 04:32:17;;;;;;;;;;;5.80;99.90;;;;;;5091470;28;20049;-63
2021/12/28 04:34:42;;;;;;;;;;;5.80;99.90;;;;;;5091479;28;19920;-63
2021/12/28 04:37:08;;;;;;;;;;;5.80;99.90;;;;;;5091482;28;19916;-63
2021/12/28 04:39:33;;;;;;;;;;;5.80;99.90;;;;;;5091619;28;19920;-63
2021/12/28 04:41:59;;;;;;;;;;;5.80;99.90;;;;;;5091462;28;19916;-63
2021/12/28 04:44:25;;;;;;;;;;;5.90;99.90;;;;;;5091369;28;19959;-63
2021/12/28 04:46:52;;;;;;;;;;;5.80;99.90;;;;;;5090075;28;20297;-63
2021/12/28 04:49:19;;;;;;;;;;;5.80;99.90;;;;;;5091204;28;20373;-63
2021/12/28 04:51:45;;;;;;;;;;;5.80;99.90;;;;;;5091097;28;19993;-63
2021/12/28 04:54:12;;;;;;;;;;;5.80;99.90;;;;;;5091220;28;20373;-63
2021/12/28 04:56:41;;;;;;;;;;;5.80;99.90;;;;;;5091160;28;20403;-63
2021/12/28 04:59:06;;;;;;;;;;;5.80;99.90;;;;;;5091144;28;19931;-63
2021/12/28 05:01:33;;;;;;;;;;;5.90;99.90;;;;;;5091230;28;19920;-63
2021/12/28 05:03:58;;;;;;;;;;;5.90;99.90;;;;;;5091236;28;19916;-63
2021/12/28 05:06:24;;;;;;;;;;;5.90;99.90;;;;;;5091372;28;19924;-63
2021/12/28 05:08:49;;;;;;;;;;;6.00;99.90;;;;;;5091395;28;19969;-63
2021/12/28 05:11:15;;;;;;;;;;;5.90;99.90;;;;;;5091106;28;19967;-63
2021/12/28 05:13:41;;;;;;;;;;;6.00;99.90;;;;;;5091140;28;20006;-63
2021/12/28 05:16:07;;;;;;;;;;;6.00;99.90;;;;;;5091107;28;20434;-63
2021/12/28 05:18:32;;;;;;;;;;;6.00;99.90;;;;;;5090972;28;19960;-63
2021/12/28 05:20:58;;;;;;;;;;;5.90;99.90;;;;;;5090958;28;19916;-62
2021/12/28 05:23:24;;;;;;;;;;;5.90;99.90;;;;;;5091136;28;20242;-63
2021/12/28 05:25:49;;;;;;;;;;;5.80;99.90;;;;;;5090940;28;19923;-63
2021/12/28 05:28:15;;;;;;;;;;;5.80;99.90;;;;;;5052937;28;1093285;-63
2021/12/28 05:30:41;;;;;;;;;;;5.80;99.90;;;;;;5092400;28;19920;-63
2021/12/28 05:33:06;;;;;;;;;;;5.80;99.90;;;;;;5095307;28;19916;-63
2021/12/28 05:35:32;;;;;;;;;;;5.70;99.90;;;;;;5095356;28;20326;-63
2021/12/28 05:37:57;;;;;;;;;;;5.70;99.90;;;;;;5095314;28;19923;-63
2021/12/28 05:40:23;;;;;;;;;;;5.60;99.90;;;;;;5095524;28;20056;-63
2021/12/28 05:42:49;;;;;;;;;;;5.60;99.90;;;;;;5095561;28;19920;-63
2021/12/28 05:45:14;;;;;;;;;;;5.60;99.90;;;;;;5095411;28;20035;-63
2021/12/28 05:47:40;;;;;;;;;;;5.60;99.90;;;;;;5095144;28;19923;-63
2021/12/28 05:50:07;;;;;;;;;;;5.50;99.90;;;;;;5095031;28;19917;-63
2021/12/28 05:52:32;;;;;;;;;;;5.50;99.90;;;;;;5095228;28;19923;-63
2021/12/28 05:54:58;;;;;;;;;;;5.50;99.90;;;;;;5095266;28;19916;-63
2021/12/28 05:57:24;;;;;;;;;;;5.50;99.90;;;;;;5095002;28;19934;-63
2021/12/28 05:59:50;;;;;;;;;;;5.50;99.90;;;;;;5094812;28;20496;-63
2021/12/28 06:02:15;;;;;;;;;;;5.50;99.90;;;;;;5095020;28;20014;-63
2021/12/28 06:04:41;;;;;;;;;;;5.50;99.90;;;;;;5094920;28;19922;-63
2021/12/28 06:07:06;;;;;;;;;;;5.50;99.90;;;;;;5095011;28;19938;-63
2021/12/28 06:09:32;;;;;;;;;;;5.50;99.90;;;;;;5094889;28;20354;-63
2021/12/28 06:11:57;;;;;;;;;;;5.50;99.90;;;;;;5094618;28;19983;-63
2021/12/28 06:14:23;;;;;;;;;;;5.50;99.90;;;;;;5094599;28;19959;-63
2021/12/28 06:16:49;;;;;;;;;;;5.40;99.90;;;;;;5094610;28;19959;-63
2021/12/28 06:19:14;;;;;;;;;;;5.40;99.90;;;;;;5094462;28;20373;-63
2021/12/28 06:21:40;;;;;;;;;;;5.40;99.90;;;;;;5094786;28;19973;-63
2021/12/28 06:24:06;;;;;;;;;;;5.40;99.90;;;;;;5093598;28;19963;-63
2021/12/28 06:26:32;;;;;;;;;;;5.40;99.90;;;;;;5094514;28;19969;-63
2021/12/28 06:28:58;;;;;;;;;;;5.40;99.90;;;;;;5094142;28;20353;-63
2021/12/28 06:31:28;;;;;;;;;;;5.40;99.90;;;;;;5094230;28;19919;-62
2021/12/28 06:33:54;;;;;;;;;;;5.40;99.90;;;;;;5093239;28;20695;-63
2021/12/28 06:36:20;;;;;;;;;;;5.40;99.90;;;;;;5094626;28;19920;-63
2021/12/28 06:38:45;;;;;;;;;;;5.40;99.90;;;;;;5094317;28;19989;-63
2021/12/28 06:41:11;;;;;;;;;;;5.40;99.90;;;;;;5093209;28;19986;-62
2021/12/28 06:43:36;;;;;;;;;;;5.40;99.90;;;;;;5093093;28;19916;-63
2021/12/28 06:46:02;;;;;;;;;;;5.40;99.90;;;;;;5094015;28;19916;-63
2021/12/28 06:48:27;;;;;;;;;;;5.40;99.90;;;;;;5094022;28;19923;-63
2021/12/28 06:50:53;;;;;;;;;;;5.40;99.90;;;;;;5093943;28;19973;-63
2021/12/28 06:53:18;;;;;;;;;;;5.40;99.90;;;;;;5093794;28;20011;-63
2021/12/28 06:55:44;;;;;;;;;;;5.40;99.90;;;;;;5093861;28;19934;-63
2021/12/28 06:58:09;;;;;;;;;;;5.40;99.90;;;;;;5093712;28;19916;-63
2021/12/28 07:00:37;;;;;;;;;;;5.40;99.90;;;;;;5093749;28;19916;-63
2021/12/28 07:03:04;;;;;;;;;;;5.40;99.90;;;;;;5093629;28;19974;-62
2021/12/28 07:05:29;;;;;;;;;;;5.40;99.90;;;;;;5093827;28;19915;-63
2021/12/28 07:07:55;;;;;;;;;;;5.40;99.90;;;;;;5093745;28;19916;-62
2021/12/28 07:10:21;;;;;;;;;;;5.40;99.90;;;;;;5093533;28;19924;-63
2021/12/28 07:12:50;;;;;;;;;;;5.40;99.90;;;;;;5093445;28;19920;-63
2021/12/28 07:15:16;;;;;;;;;;;5.40;99.90;;;;;;5093445;28;20312;-63
2021/12/28 07:17:42;;;;;;;;;;;5.40;99.90;;;;;;5093445;28;19916;-63
2021/12/28 07:20:08;;;;;;;;;;;5.40;99.90;;;;;;5093587;28;19915;-63
2021/12/28 07:22:34;;;;;;;;;;;5.30;99.90;;;;;;5093648;28;19923;-63
2021/12/28 07:25:00;;;;;;;;;;;5.40;99.90;;;;;;5093715;28;19920;-63
2021/12/28 07:27:25;;;;;;;;;;;5.30;99.90;;;;;;5093017;28;20354;-62
2021/12/28 07:29:51;;;;;;;;;;;5.30;99.90;;;;;;5093317;28;19916;-63
2021/12/28 07:32:16;;;;;;;;;;;5.30;99.90;;;;;;5093117;28;20362;-63
2021/12/28 07:34:42;;;;;;;;;;;5.30;99.90;;;;;;5093229;28;19916;-63
2021/12/28 07:37:08;;;;;;;;;;;5.30;99.90;;;;;;5093229;28;20322;-63
2021/12/28 07:39:33;;;;;;;;;;;5.30;99.90;;;;;;5093123;28;19931;-62
2021/12/28 07:41:59;;;;;;;;;;;5.30;99.90;;;;;;5093004;28;19915;-63
2021/12/28 07:44:25;;;;;;;;;;;5.40;99.90;;;;;;5092854;28;19960;-63
2021/12/28 07:46:50;;;;;;;;;;;5.40;99.90;;;;;;5092879;28;19916;-63
2021/12/28 07:49:16;;;;;;;;;;;5.40;99.90;;;;;;5092961;28;19916;-62
2021/12/28 07:51:41;;;;;;;;;;;5.40;99.90;;;;;;5092901;28;19945;-62
2021/12/28 07:54:07;;;;;;;;;;;5.40;99.90;;;;;;5092616;28;20408;-63
2021/12/28 07:56:32;;;;;;;;;;;5.40;99.90;;;;;;5092873;28;20277;-63
2021/12/28 07:58:58;;;;;;;;;;;5.40;99.90;;;;;;5092814;28;20397;-63
2021/12/28 08:01:23;;;;;;;;;;;5.40;99.90;;;;;;5092941;28;20652;-63
2021/12/28 08:03:49;;;;;;;;;;;5.60;99.90;;;;;;5092537;28;19916;-63
2021/12/28 08:06:15;;;;;;;;;;;5.50;99.90;;;;;;5092710;28;19923;-62
2021/12/28 08:08:40;;;;;;;;;;;5.50;99.90;;;;;;5092780;28;20405;-63
2021/12/28 08:11:06;;;;;;;;;;;5.50;99.90;;;;;;5092656;28;20370;-62
2021/12/28 08:13:31;;;;;;;;;;;5.50;99.90;;;;;;5092674;28;19916;-63
2021/12/28 08:15:57;;;;;;;;;;;5.50;99.90;;;;;;5092628;28;19938;-63
2021/12/28 08:18:22;;;;;;;;;;;5.60;99.90;;;;;;5092699;28;20387;-63
2021/12/28 08:20:48;;;;;;;;;;;5.60;99.90;;;;;;5091288;28;19919;-62
2021/12/28 08:23:14;;;;;;;;;;;5.60;99.90;;;;;;5092505;28;19924;-63
2021/12/28 08:25:39;;;;;;;;;;;5.60;99.90;;;;;;5092557;28;19942;-63
2021/12/28 08:28:06;;;;;;;;;;;5.60;99.90;;;;;;5092280;28;19923;-63
2021/12/28 08:30:35;;;;;;;;;;;5.60;99.90;;;;;;5092329;28;19965;-63
2021/12/28 08:33:05;;;;;;;;;;;5.60;99.90;;;;;;5092613;28;19916;-63
2021/12/28 08:35:30;;;;;;;;;;;5.70;99.90;;;;;;5092525;28;19916;-63
2021/12/28 08:37:56;;;;;;;;;;;5.70;99.90;;;;;;5092378;28;20289;-63
2021/12/28 08:40:22;;;;;;;;;;;5.80;99.90;;;;;;5092401;28;20373;-63
2021/12/28 08:42:47;;;;;;;;;;;5.80;99.90;;;;;;5092177;28;20022;-63
2021/12/28 08:45:13;;;;;;;;;;;5.70;99.90;;;;;;5092173;28;19923;-63
2021/12/28 08:47:39;;;;;;;;;;;5.80;99.90;;;;;;5092130;28;20048;-61
2021/12/28 08:50:06;;;;;;;;;;;5.90;99.90;;;;;;5092465;28;19963;-62
2021/12/28 08:52:31;;;;;;;;;;;5.90;99.90;;;;;;5092070;28;19920;-62
2021/12/28 08:54:57;;;;;;;;;;;5.90;99.90;;;;;;5092505;28;19916;-62
2021/12/28 08:57:23;;;;;;;;;;;6.00;99.90;;;;;;5092336;28;20605;-62
2021/12/28 08:59:48;;;;;;;;;;;6.00;99.90;;;;;;5092042;28;19923;-62
2021/12/28 09:02:14;;;;;;;;;;;6.10;99.90;;;;;;5092302;28;19920;-62
2021/12/28 09:04:43;;;;;;;;;;;6.10;99.90;;;;;;5092161;28;20388;-62
2021/12/28 09:07:12;;;;;;;;;;;6.20;99.90;;;;;;5094853;28;19962;-62
2021/12/28 09:09:37;;;;;;;;;;;6.20;99.90;;;;;;5095844;28;19969;-62
2021/12/28 09:12:03;;;;;;;;;;;6.30;99.90;;;;;;5095748;28;19924;-62
2021/12/28 09:14:29;;;;;;;;;;;6.40;99.90;;;;;;5095754;28;19923;-62
2021/12/28 09:16:55;;;;;;;;;;;6.50;99.90;;;;;;5095929;28;19926;-62
2021/12/28 09:19:20;;;;;;;;;;;6.50;99.90;;;;;;5095814;28;19916;-62
2021/12/28 09:21:46;;;;;;;;;;;6.50;99.90;;;;;;5095720;28;20377;-61
2021/12/28 09:24:11;;;;;;;;;;;6.50;99.90;;;;;;5095648;28;20390;-62
2021/12/28 09:26:37;;;;;;;;;;;6.70;99.90;;;;;;5095451;28;20362;-62
2021/12/28 09:29:03;;;;;;;;;;;6.60;99.90;;;;;;5095283;28;20381;-62
2021/12/28 09:31:29;;;;;;;;;;;6.60;99.90;;;;;;5095690;28;19946;-62
2021/12/28 09:33:54;;;;;;;;;;;6.70;99.90;;;;;;5095582;28;19927;-62
2021/12/28 09:36:20;;;;;;;;;;;6.70;99.90;;;;;;5095534;28;19916;-62
2021/12/28 09:38:46;;;;;;;;;;;6.70;99.90;;;;;;5095369;28;19965;-62
2021/12/28 09:41:12;;;;;;;;;;;6.80;99.90;;;;;;5095299;28;19923;-62
2021/12/28 09:43:38;;;;;;;;;;;6.80;99.90;;;;;;5095432;28;20010;-62
2021/12/28 09:46:03;;;;;;;;;;;6.90;99.90;;;;;;5095740;28;20113;-62
2021/12/28 09:48:29;;;;;;;;;;;6.90;99.90;;;;;;5095386;28;19916;-62
2021/12/28 09:50:55;;;;;;;;;;;7.00;99.90;;;;;;5094979;28;19920;-62
2021/12/28 09:53:20;;;;;;;;;;;7.00;99.90;;;;;;5095044;28;20377;-62
2021/12/28 09:55:46;;;;;;;;;;;7.00;99.90;;;;;;5095082;28;20015;-62
2021/12/28 09:58:11;;;;;;;;;;;7.10;99.90;;;;;;5094867;28;19976;-62
2021/12/28 10:00:37;;;;;;;;;;;7.10;99.90;;;;;;5095107;28;20009;-62
2021/12/28 10:03:03;;;;;;;;;;;7.10;99.90;;;;;;5094927;28;19939;-61
2021/12/28 10:05:29;;;;;;;;;;;7.00;99.90;;;;;;5094960;28;20467;-62
2021/12/28 10:07:59;;;;;;;;;;;7.00;99.90;;;;;;5094839;28;19966;-62
2021/12/28 10:10:26;;;;;;;;;;;7.10;99.90;;;;;;5094654;28;19994;-61
2021/12/28 10:12:53;;;;;;;;;;;7.10;99.90;;;;;;5094673;28;20014;-62
2021/12/28 10:15:20;;;;;;;;;;;7.10;99.90;;;;;;5094805;28;19923;-62
2021/12/28 10:17:49;;;;;;;;;;;7.10;99.90;;;;;;5094690;28;19920;-61
2021/12/28 10:20:19;;;;;;;;;;;7.00;99.90;;;;;;5094591;28;19920;-62
2021/12/28 10:22:52;;;;;;;;;;;7.00;99.90;;;;;;5094492;28;19943;-62
2021/12/28 10:25:20;;;;;;;;;;;7.10;99.90;;;;;;5094514;28;20274;-62
2021/12/28 10:27:47;;;;;;;;;;;7.10;99.90;;;;;;5094469;28;20010;-61
2021/12/28 10:30:15;;;;;;;;;;;7.10;99.90;;;;;;5094660;28;19916;-62
2021/12/28 10:32:42;;;;;;;;;;;7.10;99.90;;;;;;5094306;28;20002;-61
2021/12/28 10:35:09;;;;;;;;;;;7.10;99.90;;;;;;5094184;28;19916;-62
2021/12/28 10:37:36;;;;;;;;;;;7.10;99.90;;;;;;5094101;28;19920;-62
2021/12/28 10:40:03;;;;;;;;;;;7.10;99.90;;;;;;5094014;28;19969;-62
2021/12/28 10:42:47;;;;;;;;;;;7.10;99.90;;;;;;5094201;28;19916;-62
2021/12/28 10:45:24;;;;;;;;;;;7.10;99.90;;;;;;5094033;28;19919;-62
2021/12/28 10:47:50;;;;;;;;;;;7.20;99.90;;;;;;5093883;28;20316;-62
2021/12/28 10:50:20;;;;;;;;;;;7.20;99.90;;;;;;5093778;28;19916;-62
2021/12/28 10:52:50;;;;;;;;;;;7.10;99.90;;;;;;5094053;28;19973;-62
2021/12/28 10:55:24;;;;;;;;;;;7.20;99.90;;;;;;5093958;28;19916;-61
2021/12/28 10:57:49;;;;;;;;;;;7.10;99.90;;;;;;5093777;28;20366;-62
2021/12/28 11:00:34;;;;;;;;;;;7.10;99.90;;;;;;5094212;28;19973;-62
2021/12/28 11:03:12;;;;;;;;;;;7.10;99.90;;;;;;5092561;28;20358;-62
2021/12/28 11:05:37;;;;;;;;;;;7.10;99.90;;;;;;5093775;28;19916;-61
2021/12/28 11:08:07;;;;;;;;;;;7.10;99.90;;;;;;5093791;28;19922;-61
2021/12/28 11:10:34;;;;;;;;;;;7.10;99.90;;;;;;5093478;28;19927;-62
2021/12/28 11:12:59;;;;;;;;;;;7.10;99.90;;;;;;5093632;28;19916;-61
2021/12/28 11:15:25;;;;;;;;;;;7.10;99.90;;;;;;5093646;28;19915;-62
2021/12/28 11:17:51;;;;;;;;;;;7.10;99.90;;;;;;5093604;28;19961;-62
2021/12/28 11:20:16;;;;;;;;;;;7.10;99.90;;;;;;5093436;28;20331;-62
2021/12/28 11:23:01;;;;;;;;;;;7.10;99.90;;;;;;5093345;28;20369;-62
2021/12/28 11:25:27;;;;;;;;;;;7.10;99.90;;;;;;5093623;28;19923;-62
2021/12/28 11:28:12;;;;;;;;;;;7.10;99.90;;;;;;5093151;28;19924;-62
2021/12/28 11:30:38;;;;;;;;;;;7.10;99.90;;;;;;5092689;28;19920;-61
2021/12/28 11:33:05;;;;;;;;;;;7.10;99.90;;;;;;5093014;28;19931;-61
2021/12/28 11:35:30;;;;;;;;;;;7.10;99.90;;;;;;5108837;28;19916;-61
2021/12/28 11:37:56;;;;;;;;;;;7.20;99.90;;;;;;5092897;28;19915;-61
2021/12/28 11:40:22;;;;;;;;;;;7.20;99.90;;;;;;5093150;28;20006;-62
2021/12/28 11:42:47;;;;;;;;;;;7.20;99.90;;;;;;5092801;28;19961;-61
2021/12/28 11:45:13;;;;;;;;;;;7.20;99.90;;;;;;5092918;28;19978;-61
2021/12/28 11:47:39;;;;;;;;;;;7.20;99.90;;;;;;5093009;28;20258;-61
2021/12/28 11:50:05;;;;;;;;;;;7.20;99.90;;;;;;5092973;28;19920;-61
2021/12/28 11:52:30;;;;;;;;;;;7.30;99.90;;;;;;5092720;28;19920;-61
2021/12/28 11:54:58;;;;;;;;;;;7.30;99.90;;;;;;5092740;28;19916;-61
2021/12/28 11:57:26;;;;;;;;;;;7.30;99.90;;;;;;5092698;28;20061;-61
2021/12/28 11:59:53;;;;;;;;;;;7.30;99.90;;;;;;5092802;28;19924;-61
2021/12/28 12:02:18;;;;;;;;;;;7.40;99.90;;;;;;5092747;28;19922;-61
2021/12/28 12:04:48;;;;;;;;;;;7.40;99.90;;;;;;5092733;28;19920;-61
2021/12/28 12:07:14;;;;;;;;;;;7.40;99.90;;;;;;5092617;28;19920;-61
2021/12/28 12:09:49;;;;;;;;;;;7.40;99.90;;;;;;5092440;28;20280;-61
2021/12/28 12:12:16;;;;;;;;;;;7.50;99.90;;;;;;5092625;28;19924;-61
2021/12/28 12:14:58;;;;;;;;;;;7.50;99.90;;;;;;5092653;28;19953;-61
2021/12/28 12:17:26;;;;;;;;;;;7.50;99.90;;;;;;5092453;28;19942;-61
2021/12/28 12:19:52;;;;;;;;;;;7.50;99.90;;;;;;5092546;28;20254;-61
2021/12/28 12:22:30;;;;;;;;;;;7.60;99.90;;;;;;5092619;28;20270;-61
2021/12/28 12:24:59;;;;;;;;;;;7.50;99.90;;;;;;5092608;28;19916;-61
2021/12/28 12:27:39;;;;;;;;;;;7.60;99.90;;;;;;5092567;28;20010;-61
2021/12/28 12:30:28;;;;;;;;;;;7.60;99.90;;;;;;5092184;28;20360;-61
2021/12/28 12:35:36;;;;;;;;;;;7.60;99.90;;;;;;5049951;28;19916;-61
2021/12/28 12:38:10;;;;;;;;;;;7.60;99.90;;;;;;5050017;28;19967;-61
2021/12/28 12:40:55;;;;;;;;;;;7.70;99.90;;;;;;5050355;28;20374;-61
2021/12/28 12:43:21;;;;;;;;;;;7.70;99.90;;;;;;5053987;28;19939;-61
2021/12/28 12:45:50;;;;;;;;;;;7.70;99.90;;;;;;5053816;28;19999;-61
2021/12/28 12:48:35;;;;;;;;;;;7.70;99.90;;;;;;5053960;28;19916;-61
2021/12/28 12:51:19;;;;;;;;;;;7.70;99.90;;;;;;5053718;28;20007;-62
2021/12/28 12:53:47;;;;;;;;;;;7.70;99.90;;;;;;5053869;28;19932;-62
2021/12/28 12:56:14;;;;;;;;;;;7.70;99.90;;;;;;5053768;28;19962;-61
2021/12/28 12:58:40;;;;;;;;;;;7.80;99.90;;;;;;5053705;28;19923;-61
2021/12/28 13:01:06;;;;;;;;;;;7.80;99.90;;;;;;5053753;28;19916;-61
2021/12/28 13:03:33;;;;;;;;;;;7.80;99.90;;;;;;5053592;28;19923;-62
2021/12/28 13:06:00;;;;;;;;;;;7.80;99.90;;;;;;5053659;28;19917;-61
2021/12/28 13:08:25;;;;;;;;;;;7.70;99.90;;;;;;5053588;28;19917;-62
2021/12/28 13:10:51;;;;;;;;;;;7.80;99.90;;;;;;5090720;28;19923;-62
2021/12/28 13:13:16;;;;;;;;;;;7.80;99.90;;;;;;5095952;28;19974;-61
2021/12/28 13:15:42;;;;;;;;;;;7.90;99.90;;;;;;5096091;28;20674;-61
2021/12/28 13:18:07;;;;;;;;;;;7.80;99.90;;;;;;5095971;28;19916;-61
2021/12/28 13:20:34;;;;;;;;;;;7.90;99.90;;;;;;5095951;28;20342;-61
2021/12/28 13:23:05;;;;;;;;;;;7.90;99.90;;;;;;5095977;28;19916;-61
2021/12/28 13:25:31;;;;;;;;;;;7.90;99.90;;;;;;5095874;28;20693;-61
2021/12/28 13:27:57;;;;;;;;;;;7.90;99.90;;;;;;5095750;28;19916;-61
2021/12/28 13:30:25;;;;;;;;;;;7.90;99.90;;;;;;5095761;28;19955;-61
2021/12/28 13:32:53;;;;;;;;;;;7.90;99.90;;;;;;5095636;28;19924;-61
2021/12/28 13:35:20;;;;;;;;;;;7.90;99.90;;;;;;5095794;28;19916;-61
2021/12/28 13:37:54;;;;;;;;;;;7.90;99.90;;;;;;5095428;28;19920;-61
2021/12/28 13:40:36;;;;;;;;;;;7.90;99.90;;;;;;5094201;28;20409;-62
2021/12/28 13:43:03;;;;;;;;;;;7.90;99.90;;;;;;5095292;28;19916;-61
2021/12/28 13:45:30;;;;;;;;;;;7.90;99.90;;;;;;5111250;28;19959;-61
2021/12/28 13:47:57;;;;;;;;;;;7.90;99.90;;;;;;5094359;28;19916;-61
2021/12/28 13:50:22;;;;;;;;;;;7.90;99.90;;;;;;5095164;28;19920;-61
2021/12/28 13:52:50;;;;;;;;;;;7.90;99.90;;;;;;5094874;28;19927;-61
2021/12/28 13:55:17;;;;;;;;;;;7.90;99.90;;;;;;5095370;28;20034;-61
2021/12/28 13:57:43;;;;;;;;;;;8.00;99.90;;;;;;5095196;28;19955;-61
2021/12/28 14:00:10;;;;;;;;;;;7.90;99.90;;;;;;5095649;28;20748;-61
2021/12/28 14:02:36;;;;;;;;;;;7.90;99.90;;;;;;5095344;28;19976;-61
2021/12/28 14:05:02;;;;;;;;;;;7.90;99.90;;;;;;5095051;28;20374;-59
2021/12/28 14:07:28;;;;;;;;;;;7.90;99.90;;;;;;5094927;28;19916;-59
2021/12/28 14:09:53;;;;;;;;;;;8.00;99.90;;;;;;5094883;28;19969;-59
2021/12/28 14:12:19;;;;;;;;;;;8.00;99.90;;;;;;5094473;28;20386;-59
2021/12/28 14:14:48;;;;;;;;;;;8.00;99.90;;;;;;5094888;28;19919;-59
2021/12/28 14:17:14;;;;;;;;;;;8.00;99.90;;;;;;5094584;28;20400;-59
2021/12/28 14:19:41;;;;;;;;;;;8.10;99.90;;;;;;5094742;28;19916;-59
2021/12/28 14:22:11;;;;;;;;;;;8.20;99.90;;;;;;5094538;28;20365;-59
2021/12/28 14:24:37;;;;;;;;;;;8.00;99.90;;;;;;5094397;28;19916;-59
2021/12/28 14:27:02;;;;;;;;;;;8.10;99.90;;;;;;5094463;28;19923;-59
2021/12/28 14:29:29;;;;;;;;;;;8.00;99.90;;;;;;5094208;28;19923;-59
2021/12/28 14:31:58;;;;;;;;;;;8.00;99.90;;;;;;5094117;28;19978;-58
2021/12/28 14:34:31;;;;;;;;;;;8.10;99.90;;;;;;5094301;28;20328;-61